Time;durP1;ratioP1;P1;durP2;ratioP2;P2;SDS_P1;SDS_P2;PMS_P1;PMS_P2;Temp;Humidity;BMP_temperature;BMP_pressure;BME280_temperature;BME280_humidity;BME280_pressure;Samples;Min_cycle;Max_cycle;Signal;HPM_P1;HPM_P2
2021/05/11 00:00:30;;;;;;;5.40;4.90;;;15.10;89.80;;;;;;5005506;28;20468;-49
2021/05/11 00:02:57;;;;;;;7.40;5.00;;;15.10;89.80;;;;;;5010582;28;20989;-49
2021/05/11 00:05:28;;;;;;;4.20;3.80;;;15.10;89.80;;;;;;5005437;28;20472;-49
2021/05/11 00:07:55;;;;;;;7.13;4.70;;;15.10;89.80;;;;;;5011438;28;21024;-48
2021/05/11 00:10:26;;;;;;;5.03;4.53;;;15.00;89.80;;;;;;5007637;28;20460;-48
2021/05/11 00:12:53;;;;;;;6.20;4.33;;;15.00;89.70;;;;;;5013057;28;20457;-49
2021/05/11 00:15:20;;;;;;;5.37;4.87;;;15.00;89.70;;;;;;5021097;28;20526;-48
2021/05/11 00:17:47;;;;;;;5.07;4.40;;;15.00;89.70;;;;;;5013202;28;20464;-49
2021/05/11 00:20:16;;;;;;;5.37;4.83;;;15.00;89.80;;;;;;5007736;28;20464;-49
2021/05/11 00:22:42;;;;;;;5.00;4.50;;;15.00;89.80;;;;;;5011878;28;20994;-49
2021/05/11 00:25:09;;;;;;;5.70;4.90;;;15.00;89.80;;;;;;5009615;28;20545;-49
2021/05/11 00:27:36;;;;;;;6.17;4.70;;;15.00;89.80;;;;;;5006828;28;21104;-49
2021/05/11 00:30:03;;;;;;;5.20;4.70;;;15.00;89.80;;;;;;5005941;28;20932;-49
2021/05/11 00:32:30;;;;;;;5.50;5.00;;;15.00;89.80;;;;;;5010151;28;20453;-48
2021/05/11 00:34:57;;;;;;;5.20;4.70;;;15.00;89.80;;;;;;5006272;28;20451;-48
2021/05/11 00:37:24;;;;;;;6.00;4.80;;;15.00;89.80;;;;;;5009853;28;20457;-49
2021/05/11 00:39:50;;;;;;;7.20;5.37;;;15.00;89.80;;;;;;5023557;28;20822;-49
2021/05/11 00:42:16;;;;;;;6.70;5.63;;;15.00;89.80;;;;;;5005830;28;20466;-50
2021/05/11 00:44:43;;;;;;;5.83;5.33;;;15.00;89.80;;;;;;5013929;28;20865;-49
2021/05/11 00:47:09;;;;;;;6.23;5.10;;;15.00;89.80;;;;;;5007990;28;20530;-49
2021/05/11 00:49:37;;;;;;;6.97;5.93;;;15.00;89.80;;;;;;5009913;28;20457;-49
2021/05/11 00:52:06;;;;;;;6.40;5.40;;;15.00;89.80;;;;;;5009944;28;20495;-49
2021/05/11 00:54:34;;;;;;;7.10;5.57;;;14.90;89.80;;;;;;5009667;28;20467;-49
2021/05/11 00:57:02;;;;;;;6.93;6.17;;;14.90;89.80;;;;;;5005456;28;20556;-49
2021/05/11 00:59:30;;;;;;;7.60;6.20;;;14.90;89.80;;;;;;5006444;28;20818;-49
2021/05/11 01:01:58;;;;;;;7.07;6.37;;;14.90;89.80;;;;;;5004773;28;20485;-49
2021/05/11 01:04:26;;;;;;;7.20;6.30;;;14.90;89.80;;;;;;5010594;28;20463;-49
2021/05/11 01:06:55;;;;;;;6.57;5.93;;;14.90;89.80;;;;;;5001214;28;20539;-49
2021/05/11 01:09:26;;;;;;;7.23;5.63;;;14.90;89.80;;;;;;5011191;28;20540;-48
2021/05/11 01:11:55;;;;;;;7.63;5.50;;;14.90;89.80;;;;;;5008724;28;20460;-48
2021/05/11 01:14:23;;;;;;;7.17;5.53;;;14.90;89.80;;;;;;5006245;28;20469;-49
2021/05/11 01:16:54;;;;;;;6.00;5.20;;;14.90;89.80;;;;;;5010297;28;20483;-49
2021/05/11 01:19:29;;;;;;;6.50;5.60;;;14.90;89.80;;;;;;5004395;28;20802;-48
2021/05/11 01:24:48;;;;;;;7.23;5.97;;;14.90;89.80;;;;;;5001344;28;20874;-49
2021/05/11 02:23:38;;;;;;;13.33;8.77;;;14.80;89.80;;;;;;5007938;28;20543;-49
2021/05/11 02:26:05;;;;;;;12.57;8.00;;;14.80;89.80;;;;;;5012513;28;20574;-48
2021/05/11 02:28:32;;;;;;;13.57;9.10;;;14.80;89.80;;;;;;5004709;28;20456;-47
2021/05/11 02:30:59;;;;;;;13.40;9.40;;;14.80;89.80;;;;;;5010082;28;20459;-47
2021/05/11 02:33:25;;;;;;;11.53;9.07;;;14.80;89.80;;;;;;5002455;28;20442;-47
2021/05/11 02:35:52;;;;;;;14.23;10.60;;;14.80;89.70;;;;;;5009206;28;20487;-47
2021/05/11 02:38:18;;;;;;;12.83;10.10;;;14.80;89.60;;;;;;5014215;28;20519;-47
2021/05/11 02:40:45;;;;;;;12.27;9.77;;;14.80;89.70;;;;;;5009541;28;20460;-50
2021/05/11 02:43:18;;;;;;;15.03;12.07;;;14.80;89.70;;;;;;5012106;28;20545;-50
2021/05/11 02:45:45;;;;;;;13.43;10.13;;;14.80;89.70;;;;;;5010519;28;20512;-50
2021/05/11 02:48:11;;;;;;;12.83;10.10;;;14.80;89.70;;;;;;5014617;28;20483;-50
2021/05/11 02:50:38;;;;;;;14.30;11.07;;;14.70;89.80;;;;;;5011344;28;20530;-50
2021/05/11 02:53:05;;;;;;;13.17;10.50;;;14.70;89.70;;;;;;5011490;28;20456;-50
2021/05/11 02:55:32;;;;;;;16.03;10.90;;;14.70;89.80;;;;;;5012028;28;20456;-50
2021/05/11 02:57:59;;;;;;;15.63;10.70;;;14.70;89.80;;;;;;5010732;28;20954;-50
2021/05/11 03:00:27;;;;;;;13.17;9.93;;;14.70;89.80;;;;;;5007222;28;20469;-50
2021/05/11 03:02:55;;;;;;;14.87;10.77;;;14.70;89.80;;;;;;5017729;28;20462;-50
2021/05/11 03:05:22;;;;;;;18.97;11.63;;;14.70;89.80;;;;;;5008223;28;20471;-50
2021/05/11 03:07:49;;;;;;;13.37;10.87;;;14.70;89.80;;;;;;5007043;28;20490;-50
2021/05/11 03:10:17;;;;;;;11.80;9.53;;;14.70;89.80;;;;;;5006152;28;20543;-50
2021/05/11 03:12:43;;;;;;;12.20;9.40;;;14.60;89.80;;;;;;5006633;28;20468;-50
2021/05/11 03:15:11;;;;;;;13.07;10.63;;;14.60;89.80;;;;;;5013126;28;20892;-50
2021/05/11 03:17:38;;;;;;;16.53;10.43;;;14.70;89.80;;;;;;5006499;28;20473;-50
2021/05/11 03:20:07;;;;;;;16.03;10.40;;;14.60;89.80;;;;;;5007984;28;20540;-50
2021/05/11 03:22:34;;;;;;;14.80;11.00;;;14.60;89.80;;;;;;5009590;28;20551;-50
2021/05/11 03:25:00;;;;;;;15.03;9.80;;;14.60;89.80;;;;;;5006722;28;20455;-50
2021/05/11 03:27:27;;;;;;;12.03;9.10;;;14.60;89.80;;;;;;5008104;28;20509;-50
2021/05/11 03:29:53;;;;;;;13.87;9.83;;;14.50;89.80;;;;;;5008852;28;20543;-50
2021/05/11 03:32:20;;;;;;;15.40;9.77;;;14.60;89.80;;;;;;5004727;28;20791;-50
2021/05/11 03:34:46;;;;;;;11.80;9.20;;;14.60;89.80;;;;;;5009987;28;20456;-50
2021/05/11 03:37:13;;;;;;;10.20;8.47;;;14.60;89.80;;;;;;5010404;28;20504;-50
2021/05/11 03:39:41;;;;;;;13.53;8.83;;;14.60;89.80;;;;;;5013349;28;21037;-50
2021/05/11 03:42:21;;;;;;;10.53;8.40;;;14.60;89.80;;;;;;5002163;28;20459;-50
2021/05/11 03:44:53;;;;;;;10.23;7.87;;;14.50;89.80;;;;;;5010567;28;20464;-50
2021/05/11 03:47:21;;;;;;;9.00;7.20;;;14.50;89.80;;;;;;5006858;28;20489;-50
2021/05/11 03:49:49;;;;;;;8.70;7.30;;;14.50;89.80;;;;;;5007819;28;20539;-50
2021/05/11 03:52:16;;;;;;;7.63;6.80;;;14.50;89.80;;;;;;5008865;28;20554;-50
2021/05/11 03:54:43;;;;;;;10.50;9.40;;;14.50;89.80;;;;;;5007154;28;20848;-50
2021/05/11 03:57:12;;;;;;;12.13;8.20;;;14.50;89.80;;;;;;5006295;28;20527;-50
2021/05/11 03:59:39;;;;;;;9.80;8.23;;;14.50;89.80;;;;;;5025799;28;20462;-50
2021/05/11 04:02:06;;;;;;;11.43;8.27;;;14.40;89.80;;;;;;5028273;28;20463;-50
2021/05/11 04:04:33;;;;;;;10.13;8.30;;;14.40;89.80;;;;;;5009400;28;20482;-50
2021/05/11 04:07:00;;;;;;;9.33;8.33;;;14.40;89.80;;;;;;5011700;28;20484;-50
2021/05/11 04:09:33;;;;;;;10.27;7.93;;;14.40;89.80;;;;;;5015169;28;20470;-50
2021/05/11 04:17:15;;;;;;;7.40;6.53;;;14.40;89.80;;;;;;5017590;28;20491;-50
2021/05/11 04:19:41;;;;;;;7.67;6.87;;;14.40;89.80;;;;;;5014001;28;20452;-50
2021/05/11 04:22:08;;;;;;;11.53;7.23;;;14.40;89.80;;;;;;5010262;28;20487;-50
2021/05/11 04:24:35;;;;;;;9.60;6.30;;;14.40;89.70;;;;;;5017445;28;20471;-50
2021/05/11 04:27:02;;;;;;;8.37;6.07;;;14.40;89.80;;;;;;5002519;28;20491;-50
2021/05/11 04:29:30;;;;;;;6.90;5.40;;;14.40;89.80;;;;;;5015786;28;20492;-50
2021/05/11 04:31:57;;;;;;;6.93;5.10;;;14.30;89.80;;;;;;5008084;28;20470;-50
2021/05/11 04:34:24;;;;;;;5.70;5.03;;;14.30;89.80;;;;;;5014676;28;20499;-50
2021/05/11 04:36:51;;;;;;;6.87;4.93;;;14.30;89.80;;;;;;5017936;28;20521;-50
2021/05/11 04:39:19;;;;;;;8.03;5.00;;;14.30;89.80;;;;;;5003666;28;20454;-50
2021/05/11 04:41:45;;;;;;;6.90;5.73;;;14.30;89.80;;;;;;5015608;28;20461;-50
2021/05/11 04:44:13;;;;;;;5.53;5.03;;;14.30;89.80;;;;;;5010904;28;20676;-50
2021/05/11 04:46:45;;;;;;;6.90;5.90;;;14.30;89.80;;;;;;5009694;28;20854;-50
2021/05/11 04:49:12;;;;;;;6.80;6.10;;;14.30;89.80;;;;;;5008600;28;20864;-50
2021/05/11 04:51:40;;;;;;;6.50;5.87;;;14.30;89.80;;;;;;5022317;28;21028;-50
2021/05/11 04:54:07;;;;;;;6.90;6.30;;;14.30;89.80;;;;;;5012795;28;20471;-50
2021/05/11 04:56:34;;;;;;;7.27;6.53;;;14.30;89.80;;;;;;5005958;28;20507;-50
2021/05/11 04:59:01;;;;;;;7.20;6.60;;;14.30;89.80;;;;;;5015858;28;21870;-50
2021/05/11 05:01:29;;;;;;;6.30;5.70;;;14.30;89.80;;;;;;5012236;28;20939;-50
2021/05/11 05:03:58;;;;;;;6.40;5.80;;;14.30;89.80;;;;;;5012170;28;20488;-50
2021/05/11 05:06:26;;;;;;;8.20;6.23;;;14.30;89.80;;;;;;5007886;28;20883;-50
2021/05/11 05:08:54;;;;;;;7.13;5.40;;;14.30;89.80;;;;;;5019454;28;20648;-50
2021/05/11 05:11:22;;;;;;;6.70;6.00;;;14.30;89.80;;;;;;5018514;28;20448;-50
2021/05/11 05:13:49;;;;;;;6.60;6.00;;;14.30;89.80;;;;;;5015756;28;20469;-51
2021/05/11 05:16:16;;;;;;;6.60;6.00;;;14.40;89.80;;;;;;5007579;28;20523;-50
2021/05/11 05:18:43;;;;;;;8.10;5.83;;;14.40;89.80;;;;;;5006002;28;21223;-50
2021/05/11 05:21:12;;;;;;;10.30;6.30;;;14.40;89.80;;;;;;5014890;28;20454;-50
2021/05/11 05:23:43;;;;;;;7.03;6.30;;;14.40;89.80;;;;;;5007729;28;20463;-51
2021/05/11 05:26:13;;;;;;;9.50;6.07;;;14.50;89.80;;;;;;5010535;28;20513;-50
2021/05/11 05:28:43;;;;;;;7.80;6.10;;;14.50;89.80;;;;;;5020540;28;20490;-50
2021/05/11 05:31:10;;;;;;;6.33;5.67;;;14.50;89.80;;;;;;5014891;28;20542;-50
2021/05/11 05:33:39;;;;;;;6.50;5.80;;;14.50;89.80;;;;;;5014204;28;20491;-50
2021/05/11 05:36:07;;;;;;;7.10;6.17;;;14.60;89.80;;;;;;5018794;28;20451;-50
2021/05/11 05:38:39;;;;;;;9.10;6.73;;;14.60;89.80;;;;;;5008887;28;20475;-51
2021/05/11 05:41:11;;;;;;;6.73;5.83;;;14.60;89.80;;;;;;5007539;28;20505;-50
2021/05/11 05:43:38;;;;;;;5.83;5.23;;;14.60;89.80;;;;;;5008122;28;20510;-50
2021/05/11 05:46:05;;;;;;;6.90;6.00;;;14.70;89.80;;;;;;5011308;28;20455;-50
2021/05/11 05:48:32;;;;;;;6.90;5.30;;;14.80;89.80;;;;;;5014629;28;20896;-50
2021/05/11 05:51:01;;;;;;;7.50;5.80;;;14.90;89.80;;;;;;5016455;28;20460;-50
2021/05/11 05:53:39;;;;;;;5.97;5.37;;;15.00;89.80;;;;;;5028173;28;20555;-50
2021/05/11 05:56:08;;;;;;;5.97;5.37;;;15.10;89.80;;;;;;5006702;28;20463;-50
2021/05/11 05:58:36;;;;;;;4.80;4.30;;;15.10;89.80;;;;;;5004122;28;20491;-49
2021/05/11 06:01:07;;;;;;;4.60;4.10;;;15.20;89.60;;;;;;5004351;28;20974;-50
2021/05/11 06:06:06;;;;;;;3.60;3.30;;;15.30;89.20;;;;;;5012599;28;20578;-51
2021/05/11 06:08:37;;;;;;;3.60;3.30;;;15.30;89.00;;;;;;5023828;28;20492;-50
2021/05/11 06:11:53;;;;;;;2.50;2.30;;;15.40;88.40;;;;;;5008320;28;20463;-50
2021/05/11 06:17:14;;;;;;;2.67;2.47;;;15.40;87.20;;;;;;5003461;28;20484;-50
2021/05/11 06:19:43;;;;;;;3.30;3.00;;;15.40;87.20;;;;;;5002560;28;20462;-50
2021/05/11 06:22:11;;;;;;;3.30;2.30;;;15.40;87.10;;;;;;5004908;28;20457;-50
2021/05/11 06:24:38;;;;;;;2.90;2.70;;;15.50;86.10;;;;;;5005181;28;20496;-50
2021/05/11 06:27:22;;;;;;;3.37;3.00;;;15.40;86.30;;;;;;5004805;28;20496;-50
2021/05/11 06:29:55;;;;;;;3.07;2.77;;;15.40;86.40;;;;;;5003065;28;20453;-50
2021/05/11 06:32:25;;;;;;;3.50;3.20;;;15.40;86.50;;;;;;5007125;28;20733;-50
2021/05/11 06:35:00;;;;;;;2.50;2.30;;;15.40;86.50;;;;;;5002574;28;20468;-50
2021/05/11 06:37:28;;;;;;;2.67;2.47;;;15.40;86.70;;;;;;5002464;28;20511;-50
2021/05/11 06:39:57;;;;;;;2.90;2.70;;;15.40;86.60;;;;;;5006851;28;20545;-50
2021/05/11 06:42:25;;;;;;;2.83;2.63;;;15.40;86.70;;;;;;5007650;28;20457;-49
2021/05/11 06:55:13;;;;;;;5.50;2.87;;;15.40;86.60;;;;;;5009214;28;20963;-49
2021/05/11 06:57:40;;;;;;;4.10;3.30;;;15.40;86.50;;;;;;5008132;28;20460;-49
2021/05/11 07:00:08;;;;;;;3.50;3.20;;;15.30;86.80;;;;;;5005215;28;21143;-52
2021/05/11 07:02:35;;;;;;;3.87;3.50;;;15.30;87.00;;;;;;5008484;28;20559;-49
2021/05/11 07:05:04;;;;;;;3.57;3.27;;;15.30;87.10;;;;;;5006204;28;20464;-49
2021/05/11 07:07:32;;;;;;;3.37;3.07;;;15.30;87.30;;;;;;5022531;28;20578;-49
2021/05/11 07:10:22;;;;;;;4.63;3.40;;;15.30;87.50;;;;;;5011599;28;20514;-47
2021/05/11 07:13:08;;;;;;;3.43;3.13;;;15.30;87.50;;;;;;5005281;28;20958;-46
2021/05/11 07:15:38;;;;;;;4.13;3.20;;;15.30;87.60;;;;;;5004923;28;20492;-47
2021/05/11 07:18:10;;;;;;;3.70;3.40;;;15.30;87.60;;;;;;5006471;28;20898;-46
2021/05/11 07:20:38;;;;;;;3.70;3.40;;;15.30;87.80;;;;;;5013049;28;20555;-46
2021/05/11 07:23:06;;;;;;;3.20;2.90;;;15.30;87.80;;;;;;5007553;28;20510;-46
2021/05/11 07:25:54;;;;;;;4.00;3.40;;;15.30;87.90;;;;;;5016303;28;20531;-46
2021/05/11 07:31:06;;;;;;;3.30;3.00;;;15.40;88.10;;;;;;5012692;28;20452;-46
2021/05/11 07:33:37;;;;;;;2.97;2.77;;;15.50;88.00;;;;;;5006733;28;20460;-46
2021/05/11 07:36:05;;;;;;;3.00;2.80;;;15.60;87.90;;;;;;5007315;28;20894;-47
2021/05/11 07:38:32;;;;;;;5.20;2.80;;;15.70;87.40;;;;;;5011226;28;20555;-46
2021/05/11 07:40:59;;;;;;;2.80;2.60;;;15.80;86.70;;;;;;5014394;28;20463;-47
2021/05/11 07:43:28;;;;;;;2.73;2.53;;;15.90;86.50;;;;;;5011614;28;20472;-47
2021/05/11 08:15:42;;;;;;;3.80;2.90;;;16.40;82.70;;;;;;5004144;28;20560;-48
2021/05/11 08:28:27;;;;;;;3.40;3.10;;;16.00;84.20;;;;;;5009077;28;21946;-47
2021/05/11 08:30:54;;;;;;;3.30;3.00;;;16.00;84.30;;;;;;5015816;28;20480;-47
2021/05/11 08:33:21;;;;;;;3.63;2.73;;;16.00;84.60;;;;;;5005112;28;20445;-47
2021/05/11 08:35:50;;;;;;;2.97;2.77;;;16.00;84.50;;;;;;5007971;28;20867;-47
2021/05/11 08:38:17;;;;;;;7.70;3.37;;;16.00;84.70;;;;;;5008322;28;20477;-48
2021/05/11 08:40:44;;;;;;;3.90;3.03;;;16.00;85.00;;;;;;5009398;28;20492;-47
2021/05/11 08:43:36;;;;;;;2.50;2.30;;;16.00;85.00;;;;;;5004817;28;20459;-47
2021/05/11 08:46:06;;;;;;;3.60;2.83;;;16.10;84.90;;;;;;5020582;28;20464;-47
2021/05/11 08:48:34;;;;;;;3.43;3.03;;;16.10;84.90;;;;;;5006735;28;21035;-47
2021/05/11 09:04:56;;;;;;;2.73;2.53;;;16.20;84.60;;;;;;5014182;28;20509;-47
2021/05/11 09:24:19;;;;;;;2.60;2.40;;;16.80;83.60;;;;;;5009817;28;20542;-47
2021/05/11 09:55:48;;;;;;;2.20;2.00;;;16.70;83.30;;;;;;5010581;28;20484;-47
2021/05/11 10:38:12;;;;;;;2.80;2.60;;;16.40;84.60;;;;;;5010363;28;20505;-47
2021/05/11 10:48:34;;;;;;;3.30;2.57;;;16.40;84.60;;;;;;5012890;28;20486;-47
2021/05/11 10:51:16;;;;;;;2.53;2.20;;;16.40;84.70;;;;;;5010474;28;20464;-47
2021/05/11 10:53:46;;;;;;;2.57;2.33;;;16.40;84.80;;;;;;5016012;28;20483;-47
2021/05/11 10:56:28;;;;;;;2.63;2.43;;;16.40;84.70;;;;;;5010561;28;20464;-47
2021/05/11 11:01:56;;;;;;;4.40;2.70;;;16.30;84.90;;;;;;5013351;28;20838;-47
2021/05/11 11:04:24;;;;;;;2.83;2.20;;;16.30;84.70;;;;;;5006862;28;20460;-47
2021/05/11 11:07:00;;;;;;;3.57;1.93;;;16.30;84.70;;;;;;5013678;28;20503;-47
2021/05/11 11:09:28;;;;;;;3.20;2.90;;;16.20;84.90;;;;;;5004443;28;20483;-47
2021/05/11 11:11:56;;;;;;;4.63;2.63;;;16.20;85.10;;;;;;5013157;28;20490;-47
2021/05/11 11:14:23;;;;;;;4.93;2.47;;;16.20;85.30;;;;;;5011051;28;20847;-47
2021/05/11 11:17:01;;;;;;;2.10;2.00;;;16.30;85.20;;;;;;5014067;28;20554;-47
2021/05/11 11:19:28;;;;;;;2.80;2.30;;;16.40;84.80;;;;;;5016249;28;20814;-47
2021/05/11 11:24:34;;;;;;;2.83;2.20;;;16.50;84.70;;;;;;5008968;28;20551;-47
2021/05/11 11:27:01;;;;;;;2.80;2.47;;;16.60;84.90;;;;;;5012078;28;20793;-47
2021/05/11 11:29:28;;;;;;;2.63;2.40;;;16.60;84.90;;;;;;5008600;28;20492;-47
2021/05/11 11:31:55;;;;;;;1.80;1.70;;;16.60;84.80;;;;;;5010521;28;20544;-47
2021/05/11 11:34:25;;;;;;;2.40;1.30;;;16.70;84.40;;;;;;5015127;28;20502;-47
2021/05/11 11:36:59;;;;;;;2.33;2.13;;;16.80;84.00;;;;;;5012159;28;20541;-47
2021/05/11 11:39:36;;;;;;;2.27;2.07;;;16.80;83.50;;;;;;5020439;28;20554;-47
2021/05/11 11:42:06;;;;;;;1.90;1.80;;;16.70;83.10;;;;;;5011600;28;20560;-47
2021/05/11 11:44:38;;;;;;;3.60;3.20;;;16.70;83.40;;;;;;5007299;28;20882;-47
2021/05/11 11:47:05;;;;;;;2.40;2.20;;;16.70;83.20;;;;;;5010068;28;20467;-47
2021/05/11 11:49:43;;;;;;;2.30;2.10;;;16.70;83.10;;;;;;5008269;28;21009;-47
2021/05/11 11:54:50;;;;;;;4.90;2.03;;;16.70;82.40;;;;;;5014419;28;20849;-47
2021/05/11 11:57:45;;;;;;;;;;;;;;;;;;;;;
2021/05/11 12:00:22;;;;;;;2.17;2.00;;;16.60;83.40;;;;;;5013503;28;20436;-47
2021/05/11 12:03:15;;;;;;;1.90;1.70;;;16.50;83.90;;;;;;5021938;28;20456;-47
2021/05/11 12:08:24;;;;;;;5.10;2.13;;;16.50;84.00;;;;;;5006971;28;20451;-47
2021/05/11 12:10:54;;;;;;;3.90;2.60;;;16.50;84.00;;;;;;5010870;28;20839;-47
2021/05/11 12:13:25;;;;;;;2.87;2.50;;;16.50;83.70;;;;;;5009379;28;20456;-47
2021/05/11 12:16:18;;;;;;;1.90;1.70;;;16.50;83.70;;;;;;5002585;28;20475;-47
2021/05/11 12:19:09;;;;;;;3.57;2.03;;;16.40;83.70;;;;;;5013493;28;20543;-47
2021/05/11 12:22:02;;;;;;;2.57;2.37;;;16.40;83.90;;;;;;5006899;28;20815;-47
2021/05/11 12:24:31;;;;;;;2.13;1.93;;;16.40;84.00;;;;;;5006669;28;20577;-46
2021/05/11 12:27:21;;;;;;;2.27;2.10;;;16.40;84.20;;;;;;5007259;28;21149;-47
2021/05/11 12:30:09;;;;;;;5.70;3.90;;;16.40;84.10;;;;;;5011151;28;20567;-47
2021/05/11 12:32:37;;;;;;;10.60;7.53;;;16.30;84.10;;;;;;5007223;28;20532;-47
2021/05/11 12:35:04;;;;;;;5.97;3.13;;;16.30;84.20;;;;;;5012185;28;20460;-47
2021/05/11 12:37:52;;;;;;;2.60;2.40;;;16.30;84.40;;;;;;5008263;28;20941;-47
2021/05/11 12:40:25;;;;;;;2.40;2.13;;;16.20;84.60;;;;;;5005508;28;20523;-47
2021/05/11 12:42:55;;;;;;;3.20;1.97;;;16.20;84.50;;;;;;5010835;28;20472;-47
2021/05/11 12:45:26;;;;;;;2.27;1.90;;;16.20;84.20;;;;;;5012173;28;20460;-47
2021/05/11 12:48:00;;;;;;;2.40;1.77;;;16.20;84.50;;;;;;5007841;28;20449;-47
2021/05/11 12:50:32;;;;;;;2.20;2.00;;;16.20;84.70;;;;;;5013846;28;20642;-47
2021/05/11 12:53:16;;;;;;;2.00;1.80;;;16.10;84.50;;;;;;5011998;28;20440;-47
2021/05/11 13:01:26;;;;;;;2.87;2.03;;;16.10;84.80;;;;;;5007889;28;20502;-47
2021/05/11 13:21:01;;;;;;;4.23;1.80;;;16.00;85.10;;;;;;5010360;28;20488;-47
2021/05/11 13:26:25;;;;;;;3.53;1.60;;;16.00;85.00;;;;;;5012901;28;20494;-46
2021/05/11 13:36:31;;;;;;;1.67;1.50;;;16.10;84.30;;;;;;5008360;28;20460;-47
2021/05/11 13:38:57;;;;;;;1.90;1.70;;;16.10;84.10;;;;;;5009374;28;20521;-47
2021/05/11 13:41:24;;;;;;;2.50;1.67;;;16.10;84.10;;;;;;5009353;28;20543;-47
2021/05/11 13:43:51;;;;;;;1.87;1.70;;;16.10;84.00;;;;;;5019587;28;20501;-47
2021/05/11 13:46:18;;;;;;;3.80;1.87;;;16.10;84.20;;;;;;5009304;28;20464;-46
2021/05/11 13:48:47;;;;;;;2.07;1.80;;;16.00;84.30;;;;;;5006612;28;20500;-46
2021/05/11 13:53:53;;;;;;;2.30;1.90;;;16.10;84.70;;;;;;5005671;28;20846;-46
2021/05/11 14:04:01;;;;;;;5.40;2.43;;;16.10;85.30;;;;;;5010010;28;20452;-46
2021/05/11 14:06:29;;;;;;;2.80;2.50;;;16.20;85.20;;;;;;5012375;28;21008;-46
2021/05/11 14:08:56;;;;;;;2.53;2.33;;;16.20;85.20;;;;;;5005580;28;20516;-47
2021/05/11 14:11:23;;;;;;;2.47;1.60;;;16.30;85.20;;;;;;5004263;28;20471;-47
2021/05/11 14:13:50;;;;;;;1.67;0.90;;;16.30;84.90;;;;;;5013799;28;20848;-48
2021/05/11 14:16:17;;;;;;;1.47;0.83;;;16.40;83.80;;;;;;5011060;28;20465;-47
2021/05/11 14:18:44;;;;;;;1.20;1.00;;;16.40;82.90;;;;;;5011766;28;20835;-47
2021/05/11 14:21:11;;;;;;;1.00;0.90;;;16.40;82.60;;;;;;5008482;28;20551;-48
2021/05/11 14:23:38;;;;;;;1.70;1.00;;;16.40;82.80;;;;;;5010916;28;20626;-47
2021/05/11 14:26:05;;;;;;;1.07;0.97;;;16.50;83.20;;;;;;5009440;28;20972;-47
2021/05/11 14:28:32;;;;;;;0.67;0.60;;;16.60;83.00;;;;;;5012415;28;20471;-47
2021/05/11 14:31:01;;;;;;;7.20;1.27;;;16.60;83.10;;;;;;5012947;28;20584;-47
2021/05/11 14:33:29;;;;;;;1.10;1.00;;;16.60;82.80;;;;;;5008513;28;20456;-47
2021/05/11 14:35:56;;;;;;;3.00;1.43;;;16.60;82.70;;;;;;5008815;28;20459;-47
2021/05/11 14:38:25;;;;;;;6.10;3.50;;;16.60;82.20;;;;;;5007695;28;20460;-47
2021/05/11 14:40:52;;;;;;;2.60;2.07;;;16.60;82.30;;;;;;5010150;28;20475;-47
2021/05/11 14:43:19;;;;;;;1.03;1.03;;;16.70;82.70;;;;;;5010793;28;20951;-47
2021/05/11 14:45:46;;;;;;;1.20;1.10;;;16.70;82.20;;;;;;5014078;28;20495;-47
2021/05/11 14:48:13;;;;;;;1.30;1.10;;;16.70;82.10;;;;;;5015154;28;21167;-47
2021/05/11 14:50:39;;;;;;;1.63;1.00;;;16.60;82.20;;;;;;5005892;28;20556;-47
2021/05/11 14:53:06;;;;;;;1.20;1.10;;;16.70;82.10;;;;;;5007264;28;20540;-47
2021/05/11 14:55:33;;;;;;;1.40;1.30;;;16.70;82.40;;;;;;5013738;28;20811;-47
2021/05/11 14:58:00;;;;;;;1.63;1.00;;;16.60;82.70;;;;;;5006454;28;20547;-47
2021/05/11 15:00:27;;;;;;;1.10;0.80;;;16.70;82.50;;;;;;5008219;28;20471;-47
2021/05/11 15:02:54;;;;;;;1.30;1.17;;;16.70;81.50;;;;;;5008248;28;20460;-47
2021/05/11 15:05:21;;;;;;;3.07;0.83;;;16.60;81.50;;;;;;5006392;28;20478;-47
2021/05/11 15:07:49;;;;;;;0.80;0.80;;;16.60;82.30;;;;;;5013764;28;20815;-47
2021/05/11 15:10:16;;;;;;;1.80;0.90;;;16.60;82.40;;;;;;5012962;28;21010;-47
2021/05/11 15:12:44;;;;;;;1.10;0.70;;;16.60;82.30;;;;;;5005208;28;20474;-48
2021/05/11 15:15:14;;;;;;;1.20;1.00;;;16.50;82.20;;;;;;5008635;28;20574;-48
2021/05/11 15:20:13;;;;;;;0.80;0.80;;;16.60;81.80;;;;;;5006543;28;20491;-47
2021/05/11 15:23:01;;;;;;;1.10;1.00;;;16.60;81.40;;;;;;5004862;28;20467;-47
2021/05/11 15:25:29;;;;;;;3.73;1.00;;;16.60;81.40;;;;;;5001405;28;21526;-47
2021/05/11 15:27:57;;;;;;;1.87;0.93;;;16.50;81.80;;;;;;5003436;28;20592;-47
2021/05/11 15:30:26;;;;;;;1.60;1.10;;;16.50;82.00;;;;;;5012680;28;21055;-47
2021/05/11 15:32:56;;;;;;;1.60;1.13;;;16.50;82.00;;;;;;5006510;28;20479;-47
2021/05/11 15:35:33;;;;;;;0.90;0.80;;;16.50;81.50;;;;;;5011128;28;20550;-47
2021/05/11 15:38:03;;;;;;;1.63;1.13;;;16.50;81.80;;;;;;5011706;28;20464;-47
2021/05/11 15:40:36;;;;;;;1.40;1.10;;;16.50;81.90;;;;;;5009673;28;20503;-47
2021/05/11 15:43:07;;;;;;;1.13;1.03;;;16.50;82.00;;;;;;5012208;28;20792;-47
2021/05/11 15:45:38;;;;;;;1.23;1.10;;;16.40;82.00;;;;;;5009233;28;20467;-47
2021/05/11 15:48:09;;;;;;;2.40;0.90;;;16.40;81.90;;;;;;5007558;28;20545;-47
2021/05/11 15:50:38;;;;;;;1.20;1.10;;;16.40;81.90;;;;;;5006861;28;20489;-48
2021/05/11 15:53:10;;;;;;;1.20;1.10;;;16.30;81.80;;;;;;5015876;28;20476;-47
2021/05/11 15:55:39;;;;;;;1.70;1.10;;;16.30;82.30;;;;;;5022901;28;20546;-47
2021/05/11 15:58:08;;;;;;;1.07;0.97;;;16.30;82.40;;;;;;4992302;28;20934;-47
2021/05/11 16:00:37;;;;;;;2.47;1.33;;;16.20;82.70;;;;;;5014058;28;20448;-47
2021/05/11 16:03:06;;;;;;;1.40;1.30;;;16.20;82.80;;;;;;5003534;28;20468;-47
2021/05/11 16:05:37;;;;;;;1.73;1.60;;;16.20;83.10;;;;;;5009743;28;20496;-46
2021/05/11 16:08:10;;;;;;;1.20;1.10;;;16.20;83.40;;;;;;5007798;28;20454;-48
2021/05/11 16:10:42;;;;;;;1.97;1.20;;;16.20;83.40;;;;;;5007835;28;20496;-48
2021/05/11 16:13:11;;;;;;;1.40;1.30;;;16.20;83.70;;;;;;5011413;28;20487;-46
2021/05/11 16:15:39;;;;;;;1.47;1.37;;;16.20;84.00;;;;;;5006545;28;20483;-47
2021/05/11 16:18:05;;;;;;;3.20;1.53;;;16.10;84.10;;;;;;5010608;28;20451;-47
2021/05/11 16:20:33;;;;;;;1.10;1.00;;;16.10;84.20;;;;;;5009890;28;20498;-47
2021/05/11 16:23:00;;;;;;;2.73;1.63;;;16.10;84.60;;;;;;5008578;28;20467;-46
2021/05/11 16:25:27;;;;;;;4.30;1.57;;;16.10;84.80;;;;;;5006585;28;20468;-48
2021/05/11 16:27:54;;;;;;;1.83;1.43;;;16.10;85.20;;;;;;5001316;28;20822;-47
2021/05/11 16:30:21;;;;;;;2.17;1.40;;;16.10;84.70;;;;;;5007177;28;21100;-48
2021/05/11 16:32:49;;;;;;;1.40;1.30;;;16.10;84.90;;;;;;5009487;28;20484;-47
2021/05/11 16:35:16;;;;;;;2.80;1.90;;;16.00;85.10;;;;;;5008366;28;20547;-47
2021/05/11 16:37:46;;;;;;;2.37;1.40;;;15.90;85.30;;;;;;5009497;28;20550;-47
2021/05/11 16:40:14;;;;;;;1.73;1.63;;;15.90;85.60;;;;;;5004528;28;21011;-47
2021/05/11 16:42:42;;;;;;;3.97;1.50;;;15.90;85.80;;;;;;5013482;28;20484;-47
2021/05/11 16:45:12;;;;;;;2.60;1.37;;;15.90;86.00;;;;;;5005728;28;20866;-49
2021/05/11 16:47:56;;;;;;;1.57;1.30;;;15.90;86.10;;;;;;5012121;28;20455;-48
2021/05/11 16:50:32;;;;;;;6.60;3.80;;;15.80;86.20;;;;;;5004907;28;20586;-49
2021/05/11 16:53:02;;;;;;;18.90;10.33;;;15.80;86.40;;;;;;5002890;28;20460;-49
2021/05/11 16:55:32;;;;;;;12.03;8.53;;;15.80;86.50;;;;;;5003458;28;20497;-48
2021/05/11 16:58:00;;;;;;;3.57;3.27;;;15.80;86.70;;;;;;5006936;28;20448;-51
2021/05/11 17:00:29;;;;;;;5.37;3.10;;;15.70;86.80;;;;;;5010496;28;20483;-50
2021/05/11 17:02:56;;;;;;;3.00;2.80;;;15.70;86.90;;;;;;5003184;28;20922;-50
2021/05/11 17:05:23;;;;;;;5.17;3.03;;;15.70;87.00;;;;;;5007554;28;20495;-51
2021/05/11 17:07:51;;;;;;;1.93;1.83;;;15.70;87.10;;;;;;5007469;28;20556;-51
2021/05/11 17:10:19;;;;;;;2.90;2.40;;;15.60;87.20;;;;;;5003920;28;20850;-50
2021/05/11 17:12:48;;;;;;;3.50;2.63;;;15.60;87.40;;;;;;5010211;28;20951;-50
2021/05/11 17:15:16;;;;;;;2.60;2.40;;;15.60;87.50;;;;;;5011987;28;20613;-50
2021/05/11 17:17:45;;;;;;;3.93;2.57;;;15.60;87.70;;;;;;5005678;28;20501;-50
2021/05/11 17:20:14;;;;;;;2.97;2.57;;;15.60;87.70;;;;;;5035880;28;20464;-51
2021/05/11 17:22:41;;;;;;;2.47;2.27;;;15.60;87.90;;;;;;5010087;28;20487;-51
2021/05/11 17:25:09;;;;;;;2.80;2.10;;;15.60;87.90;;;;;;5008395;28;20471;-50
2021/05/11 17:27:36;;;;;;;2.80;2.10;;;15.60;88.00;;;;;;5010844;28;20971;-50
2021/05/11 17:30:07;;;;;;;3.87;2.40;;;15.60;88.10;;;;;;5013091;28;20847;-50
2021/05/11 17:32:34;;;;;;;3.10;2.27;;;15.60;88.00;;;;;;5004550;28;20790;-50
2021/05/11 17:35:02;;;;;;;2.40;2.20;;;15.60;88.10;;;;;;5012316;28;20440;-50
2021/05/11 17:37:29;;;;;;;5.23;2.63;;;15.60;88.00;;;;;;5007884;28;20463;-50
2021/05/11 17:39:56;;;;;;;2.17;1.97;;;15.60;87.90;;;;;;5014293;28;20471;-50
2021/05/11 17:42:23;;;;;;;2.53;1.90;;;15.60;87.60;;;;;;5008735;28;20473;-50
2021/05/11 17:44:50;;;;;;;2.60;2.40;;;15.60;87.70;;;;;;5012675;28;20865;-50